Time;durP1;ratioP1;P1;durP2;ratioP2;P2;SDS_P1;SDS_P2;PMS_P1;PMS_P2;Temp;Humidity;BMP_temperature;BMP_pressure;BME280_temperature;BME280_humidity;BME280_pressure;Samples;Min_cycle;Max_cycle;Signal;HPM_P1;HPM_P2
2021/05/27 00:03:24;;;;;;;;;;;9.40;99.90;;;8.12;100.00;95801.63;10271567;28;2048;-86
2021/05/27 00:08:27;;;;;;;;;;;9.20;99.90;;;8.17;100.00;95802.72;10330367;28;2084;-87
2021/05/27 00:13:31;;;;;;;;;;;9.00;99.90;;;8.22;100.00;95800.91;10320788;28;1780;-86
2021/05/27 00:18:34;;;;;;;;;;;9.30;99.90;;;8.28;100.00;95796.38;10340898;28;2118;-86
2021/05/27 00:23:37;;;;;;;;;;;9.10;99.90;;;8.30;100.00;95789.69;10275918;28;1757;-86
2021/05/27 00:28:40;;;;;;;;;;;9.20;99.90;;;8.30;100.00;95786.22;10341944;28;1981;-87
2021/05/27 00:33:49;;;;;;;;;;;9.20;99.90;;;8.25;100.00;95794.22;10331328;28;2068;-86
2021/05/27 00:38:55;;;;;;;;;;;9.30;99.90;;;8.29;100.00;95789.97;10272413;28;1907;-86
2021/05/27 00:44:00;;;;;;;;;;;9.50;99.90;;;8.21;100.00;95799.28;10325897;28;2093;-85
2021/05/27 00:49:04;;;;;;;;;;;9.20;99.90;;;8.16;100.00;95806.47;10340221;28;1919;-86
2021/05/27 00:54:12;;;;;;;;;;;9.10;99.90;;;8.22;100.00;95805.44;10334837;28;1462;-86
2021/05/27 00:59:15;;;;;;;;;;;9.20;99.90;;;8.20;100.00;95808.38;10340606;28;1975;-86
2021/05/27 01:04:18;;;;;;;;;;;9.10;99.90;;;8.18;100.00;95810.50;10333602;28;2145;-86
2021/05/27 01:09:24;;;;;;;;;;;9.30;99.90;;;8.11;100.00;95805.38;10339308;28;2095;-84
2021/05/27 01:19:43;;;;;;;;;;;9.00;99.90;;;7.99;100.00;95799.38;10307021;28;2090;-86
2021/05/27 01:24:46;;;;;;;;;;;9.00;99.90;;;8.01;100.00;95805.28;10296629;28;2097;-87
2021/05/27 01:29:49;;;;;;;;;;;9.20;99.90;;;7.99;100.00;95794.03;10353727;28;2079;-87
2021/05/27 01:34:52;;;;;;;;;;;8.90;99.90;;;7.96;100.00;95810.63;10329429;28;1706;-85
2021/05/27 01:39:56;;;;;;;;;;;9.00;99.90;;;8.02;100.00;95825.66;10271431;28;2138;-86
2021/05/27 01:45:04;;;;;;;;;;;9.20;99.90;;;7.99;100.00;95820.81;10355146;28;2407;-87
2021/05/27 01:50:09;;;;;;;;;;;8.90;99.90;;;8.01;100.00;95821.34;10328050;28;1887;-86
2021/05/27 01:55:12;;;;;;;;;;;8.90;99.90;;;8.01;100.00;95821.34;10338854;28;1759;-87
2021/05/27 02:00:15;;;;;;;;;;;9.20;99.90;;;8.02;100.00;95816.81;10340467;28;1896;-84
2021/05/27 02:05:20;;;;;;;;;;;8.90;99.90;;;8.04;100.00;95828.88;10359970;28;2169;-85
2021/05/27 02:10:26;;;;;;;;;;;9.10;99.90;;;7.98;100.00;95827.22;10315695;28;2178;-85
2021/05/27 02:15:32;;;;;;;;;;;9.10;99.90;;;7.97;100.00;95825.63;10335480;28;2269;-86
2021/05/27 02:20:35;;;;;;;;;;;9.10;99.90;;;7.96;100.00;95824.00;10347964;28;1896;-85
2021/05/27 02:25:38;;;;;;;;;;;8.90;99.90;;;7.98;100.00;95821.88;10335102;28;2217;-84
2021/05/27 02:30:42;;;;;;;;;;;8.90;99.90;;;7.97;100.00;95820.25;10353541;28;1910;-85
2021/05/27 02:35:45;;;;;;;;;;;8.90;99.90;;;7.85;100.00;95811.59;10336508;28;2056;-87
2021/05/27 02:40:48;;;;;;;;;;;8.80;99.90;;;7.84;100.00;95821.50;10335778;28;2102;-85
2021/05/27 02:45:51;;;;;;;;;;;8.80;99.90;;;7.89;100.00;95828.78;10356191;28;2141;-85
2021/05/27 02:50:54;;;;;;;;;;;9.10;99.90;;;7.83;100.00;95830.59;10271163;28;2048;-86
2021/05/27 02:55:57;;;;;;;;;;;8.80;99.90;;;7.85;100.00;95841.03;10335457;28;2157;-86
2021/05/27 03:01:00;;;;;;;;;;;8.80;99.90;;;7.86;100.00;95839.97;10336772;28;1646;-85
2021/05/27 03:06:03;;;;;;;;;;;9.40;99.90;;;7.86;100.00;95832.75;10294158;28;2439;-87
2021/05/27 03:11:06;;;;;;;;;;;9.20;99.90;;;7.80;100.00;95830.28;10331049;28;2320;-87
2021/05/27 03:16:09;;;;;;;;;;;9.00;99.90;;;7.76;100.00;95834.50;10283225;28;1488;-87
2021/05/27 03:21:12;;;;;;;;;;;8.70;99.90;;;7.76;100.00;95834.50;10267060;28;1675;-86
2021/05/27 03:26:16;;;;;;;;;;;8.70;99.90;;;7.75;100.00;95838.25;10341631;28;2107;-86
2021/05/27 03:31:21;;;;;;;;;;;8.70;99.90;;;7.75;100.00;95838.25;10352663;28;1984;-86
2021/05/27 03:36:24;;;;;;;;;;;9.10;99.90;;;7.76;100.00;95823.81;10293111;28;2325;-86
2021/05/27 03:41:27;;;;;;;;;;;9.40;99.90;;;7.82;100.00;95828.97;10280294;28;2357;-84
2021/05/27 03:46:34;;;;;;;;;;;9.10;99.90;;;7.86;100.00;95831.94;10328501;28;2230;-86
2021/05/27 03:51:37;;;;;;;;;;;8.70;99.90;;;7.78;100.00;95840.44;10278749;28;1907;-85
2021/05/27 03:56:40;;;;;;;;;;;8.90;99.90;;;7.88;100.00;95847.72;10324861;28;2175;-85
2021/05/27 04:01:43;;;;;;;;;;;9.40;99.90;;;7.85;100.00;95854.41;10319415;28;2320;-86
2021/05/27 04:17:30;;;;;;;;;;;8.80;99.90;;;7.99;100.00;95834.19;10319975;28;2076;-87
2021/05/27 04:22:33;;;;;;;;;;;8.90;99.90;;;8.11;100.00;95837.50;10266900;28;2178;-85
2021/05/27 04:27:40;;;;;;;;;;;8.90;99.90;;;8.15;100.00;95853.06;10331823;28;2095;-85
2021/05/27 04:32:56;;;;;;;;;;;9.40;99.90;;;8.16;100.00;95844.78;10346292;28;2091;-86
2021/05/27 04:38:00;;;;;;;;;;;9.30;99.90;;;8.32;100.00;95840.31;10331772;28;2253;-85
2021/05/27 04:43:09;;;;;;;;;;;9.10;99.90;;;8.43;100.00;95847.41;10323873;28;2103;-85
2021/05/27 04:48:15;;;;;;;;;;;9.20;99.90;;;8.45;100.00;95864.00;10323874;28;2130;-85
2021/05/27 04:53:18;;;;;;;;;;;9.30;99.90;;;8.43;100.00;95854.63;10324771;28;2281;-87
2021/05/27 04:58:21;;;;;;;;;;;9.30;99.90;;;8.41;100.00;95865.59;10320277;28;2183;-87
2021/05/27 05:03:35;;;;;;;;;;;9.30;99.90;;;8.38;100.00;95858.88;10284392;28;2146;-87
2021/05/27 05:08:47;;;;;;;;;;;9.30;99.90;;;8.31;100.00;95858.25;10338235;28;2237;-87
2021/05/27 05:13:54;;;;;;;;;;;9.30;99.90;;;8.29;100.00;95859.59;10342337;28;2045;-88
2021/05/27 05:19:05;;;;;;;;;;;9.20;99.90;;;8.25;100.00;95866.50;10366873;28;2042;-87
2021/05/27 05:24:09;;;;;;;;;;;9.30;99.90;;;8.28;100.00;95861.47;10349596;28;1654;-86
2021/05/27 05:29:14;;;;;;;;;;;9.20;99.90;;;8.34;100.00;95865.00;10379488;28;2293;-86
2021/05/27 05:34:19;;;;;;;;;;;9.30;99.90;;;8.47;100.00;95866.44;10353214;28;2003;-87
2021/05/27 05:39:24;;;;;;;;;;;9.30;99.90;;;8.52;100.00;95880.66;10365601;28;2067;-86
2021/05/27 05:49:50;;;;;;;;;;;9.40;99.90;;;8.39;100.00;95897.19;10336006;28;1887;-88
2021/05/27 05:54:58;;;;;;;;;;;9.40;99.90;;;8.25;100.00;95886.06;10332338;28;2132;-86
2021/05/27 06:00:02;;;;;;;;;;;9.30;99.90;;;8.41;100.00;95884.34;10333669;28;1610;-87
2021/05/27 06:05:11;;;;;;;;;;;9.30;99.90;;;8.95;100.00;95881.47;10331353;28;2137;-86
2021/05/27 06:10:22;;;;;;;;;;;9.50;99.90;;;9.48;99.23;95877.69;10261990;28;2118;-86
2021/05/27 06:15:28;;;;;;;;;;;10.70;99.90;;;9.71;96.50;95886.31;10338135;28;1969;-85
2021/05/27 06:20:34;;;;;;;;;;;10.30;99.90;;;9.84;93.32;95890.38;10342800;28;1452;-87
2021/05/27 06:25:39;;;;;;;;;;;10.50;99.90;;;9.88;93.42;95875.34;10342028;28;2158;-86
2021/05/27 06:30:42;;;;;;;;;;;10.60;99.90;;;9.63;94.03;95895.69;10332309;28;2302;-86
2021/05/27 06:35:47;;;;;;;;;;;10.60;99.90;;;9.77;93.59;95900.56;10288457;28;1548;-84
2021/05/27 06:40:52;;;;;;;;;;;10.60;99.90;;;9.62;92.87;95904.03;10281822;28;1907;-85
2021/05/27 06:57:49;;;;;;;;;;;10.90;99.90;;;9.83;93.15;95900.31;10333327;28;1621;-86
2021/05/27 07:09:52;;;;;;;;;;;10.80;99.90;;;10.07;93.71;95887.19;10493918;28;2009;-85
2021/05/27 08:03:27;;;;;;;;;;;11.30;99.90;;;11.72;82.17;95908.94;10342215;28;1871;-81
2021/05/27 08:58:09;;;;;;;;;;;12.50;99.90;;;11.79;72.50;95941.75;10185149;28;2364;-84
2021/05/27 09:03:13;;;;;;;;;;;12.40;99.90;;;12.24;68.90;95942.59;10372525;28;1569;-85
2021/05/27 09:08:15;;;;;;;;;;;12.60;99.90;;;12.17;70.57;95952.91;10371921;28;2243;-83
2021/05/27 09:13:18;;;;;;;;;;;12.80;99.90;;;11.82;67.77;95957.38;10353217;28;1965;-84
2021/05/27 09:18:23;;;;;;;;;;;12.70;99.90;;;11.99;69.24;95967.00;10368806;28;1575;-84
2021/05/27 09:23:25;;;;;;;;;;;12.70;99.90;;;11.86;70.15;95969.22;10454298;28;1963;-85
2021/05/27 09:28:28;;;;;;;;;;;12.60;99.90;;;12.02;74.80;95972.63;10460831;28;1709;-85
2021/05/27 09:33:31;;;;;;;;;;;12.50;99.90;;;12.29;71.78;95968.72;10468164;28;1920;-83
2021/05/27 09:38:33;;;;;;;;;;;12.70;99.90;;;12.76;67.40;95962.72;10444598;28;2042;-83
2021/05/27 09:43:35;;;;;;;;;;;13.20;99.90;;;12.98;63.91;95967.66;10453486;28;1801;-86
2021/05/27 09:48:38;;;;;;;;;;;13.50;99.90;;;13.41;62.33;95963.19;10456671;28;1985;-82
2021/05/27 09:53:40;;;;;;;;;;;13.70;99.90;;;12.87;61.04;95968.84;10474389;28;2062;-83
2021/05/27 09:58:43;;;;;;;;;;;14.00;99.90;;;12.13;64.05;95981.47;10474376;28;2070;-84
2021/05/27 10:03:59;;;;;;;;;;;13.20;99.90;;;11.24;75.96;95980.44;10279770;28;2079;-81
2021/05/27 10:09:10;;;;;;;;;;;12.60;99.90;;;10.85;76.55;95980.22;10264269;28;2143;-84
2021/05/27 10:14:38;;;;;;;;;;;11.90;99.90;;;11.21;78.14;95979.09;10271013;28;2182;-81
2021/05/27 10:19:49;;;;;;;;;;;11.90;99.90;;;12.14;73.95;95975.78;10282107;28;2178;-84
2021/05/27 10:25:33;;;;;;;;;;;12.40;99.90;;;12.82;69.44;95971.56;10269448;28;2024;-83
2021/05/27 10:30:45;;;;;;;;;;;14.60;99.90;;;13.66;65.87;95961.28;10268049;28;1970;-82
2021/05/27 10:35:50;;;;;;;;;;;13.90;99.90;;;14.27;60.16;95963.22;10446637;28;1931;-84
2021/05/27 10:40:56;;;;;;;;;;;14.70;99.90;;;14.12;61.19;95964.22;10465028;28;1973;-85
2021/05/27 10:51:29;;;;;;;;;;;14.80;99.90;;;14.22;62.12;95952.47;10450446;28;2115;-84
2021/05/27 11:02:15;;;;;;;;;;;15.30;99.90;;;15.59;54.66;95936.66;10309161;28;2073;-85
2021/05/27 11:07:38;;;;;;;;;;;16.00;99.90;;;16.41;51.84;95943.06;10315744;28;1842;-84
2021/05/27 11:12:59;;;;;;;;;;;16.80;99.90;;;15.31;50.74;95946.66;10299860;28;2147;-82
2021/05/27 11:18:09;;;;;;;;;;;16.60;99.90;;;15.51;51.26;95950.88;10295323;28;1959;-83
2021/05/27 11:23:27;;;;;;;;;;;16.30;99.90;;;14.25;54.98;95949.16;10331024;28;1999;-84
2021/05/27 11:29:00;;;;;;;;;;;15.60;99.90;;;14.16;55.83;95949.03;10434219;28;1970;-85
2021/05/27 11:34:03;;;;;;;;;;;15.10;99.90;;;13.74;58.14;95949.84;10494823;28;2105;-82
2021/05/27 11:39:06;;;;;;;;;;;14.80;99.90;;;14.05;57.05;95952.97;10481219;28;2086;-85
2021/05/27 11:44:08;;;;;;;;;;;14.90;99.90;;;14.26;56.78;95948.09;10466685;28;1864;-83
2021/05/27 11:49:13;;;;;;;;;;;15.00;99.90;;;13.61;58.69;95947.84;10471249;28;2027;-85
2021/05/27 11:54:16;;;;;;;;;;;14.80;99.90;;;13.55;59.74;95943.59;10448229;28;2129;-83
2021/05/27 11:59:18;;;;;;;;;;;14.70;99.90;;;13.36;56.50;95946.22;10450365;28;2037;-86
2021/05/27 12:04:20;;;;;;;;;;;14.40;99.90;;;13.62;58.07;95939.47;10467921;28;1888;-82
2021/05/27 12:09:23;;;;;;;;;;;14.60;99.90;;;13.74;54.77;95936.34;10457546;28;2041;-83
2021/05/27 12:14:25;;;;;;;;;;;14.80;99.90;;;14.14;57.53;95932.31;10486624;28;2058;-82
2021/05/27 12:19:27;;;;;;;;;;;14.90;99.90;;;14.27;51.84;95933.47;10474088;28;1920;-84
2021/05/27 12:24:30;;;;;;;;;;;15.20;99.90;;;14.36;52.83;95930.91;10490646;28;1922;-85
2021/05/27 12:29:36;;;;;;;;;;;15.30;99.90;;;14.80;52.67;95930.50;10460038;28;1894;-84
2021/05/27 12:35:07;;;;;;;;;;;15.70;99.90;;;14.81;51.80;95934.81;10465638;28;1703;-85
2021/05/27 12:40:17;;;;;;;;;;;16.00;99.90;;;15.64;47.55;95931.13;10471533;28;2101;-84
2021/05/27 12:45:37;;;;;;;;;;;16.40;99.90;;;15.50;48.33;95933.03;10463529;28;2126;-81
2021/05/27 12:50:39;;;;;;;;;;;16.40;99.90;;;15.55;49.26;95924.00;10470111;28;2236;-82
2021/05/27 12:55:42;;;;;;;;;;;16.50;99.90;;;16.31;45.96;95918.91;10469571;28;1608;-83
2021/05/27 13:00:44;;;;;;;;;;;17.00;99.90;;;16.40;45.48;95925.19;10467377;28;2078;-85
2021/05/27 13:05:49;;;;;;;;;;;17.20;99.90;;;16.03;43.62;95920.84;10492097;28;1907;-85
2021/05/27 13:10:54;;;;;;;;;;;17.10;99.90;;;15.89;43.28;95905.41;10479553;28;2226;-85
2021/05/27 13:15:56;;;;;;;;;;;16.90;99.90;;;16.06;44.92;95912.13;10479879;28;1529;-86
2021/05/27 13:20:58;;;;;;;;;;;17.00;99.90;;;16.04;43.14;95914.34;10502664;28;2066;-84
2021/05/27 13:26:02;;;;;;;;;;;17.00;99.90;;;16.73;42.66;95904.91;10452037;28;1386;-83
2021/05/27 13:31:04;;;;;;;;;;;17.20;99.90;;;16.48;44.37;95900.06;10465252;28;1910;-83
2021/05/27 13:36:06;;;;;;;;;;;17.40;99.90;;;16.07;46.19;95892.84;10472674;28;1943;-83
2021/05/27 13:41:09;;;;;;;;;;;17.30;99.90;;;15.88;44.18;95894.88;10476693;28;2061;-84
2021/05/27 13:46:15;;;;;;;;;;;17.00;98.30;;;16.25;41.47;95895.72;10474938;28;1938;-87
2021/05/27 13:51:33;;;;;;;;;;;17.20;96.00;;;17.10;41.32;95881.13;10494558;28;1955;-86
2021/05/27 13:56:36;;;;;;;;;;;17.50;97.40;;;16.98;39.85;95891.75;10485124;28;2113;-86
2021/05/27 14:01:38;;;;;;;;;;;17.90;93.50;;;17.11;41.64;95893.59;10471332;28;2053;-86
2021/05/27 14:06:41;;;;;;;;;;;18.10;93.30;;;16.86;41.06;95883.38;10459811;28;2019;-87
2021/05/27 14:11:43;;;;;;;;;;;18.20;92.30;;;16.74;41.16;95895.63;10473249;28;2030;-85
2021/05/27 14:16:48;;;;;;;;;;;17.80;91.30;;;16.08;42.47;95894.44;10480933;28;2021;-85
2021/05/27 14:22:05;;;;;;;;;;;17.40;91.30;;;16.68;41.20;95890.63;10475333;28;2126;-85
2021/05/27 14:27:08;;;;;;;;;;;17.40;90.60;;;17.17;39.37;95891.53;10483089;28;2075;-85
2021/05/27 14:32:11;;;;;;;;;;;17.80;89.30;;;16.73;41.95;95895.91;10488589;28;1891;-84
2021/05/27 14:37:17;;;;;;;;;;;17.70;90.30;;;16.81;40.44;95894.41;10477179;28;1995;-84
2021/05/27 14:42:22;;;;;;;;;;;17.80;88.50;;;16.77;41.48;95890.69;10487708;28;1919;-85
2021/05/27 14:47:26;;;;;;;;;;;17.90;89.30;;;16.97;41.23;95893.69;10479405;28;1997;-85
2021/05/27 14:52:32;;;;;;;;;;;17.70;89.90;;;17.20;38.33;95891.72;10459551;28;2206;-86
2021/05/27 14:57:35;;;;;;;;;;;18.10;86.90;;;17.79;39.49;95886.84;10475254;28;2022;-86
2021/05/27 15:02:42;;;;;;;;;;;18.30;87.10;;;17.74;38.40;95881.53;10477913;28;1999;-87
2021/05/27 15:07:46;;;;;;;;;;;18.60;84.90;;;17.58;38.95;95882.28;10473275;28;1857;-84
2021/05/27 15:13:04;;;;;;;;;;;18.70;84.50;;;16.73;40.94;95893.22;10474048;28;1985;-83
2021/05/27 15:18:07;;;;;;;;;;;18.00;84.60;;;16.53;40.59;95893.69;10468089;28;1771;-82
2021/05/27 15:23:19;;;;;;;;;;;17.50;85.70;;;16.16;43.17;95898.34;10459279;28;1872;-86
2021/05/27 15:28:37;;;;;;;;;;;17.20;87.60;;;15.38;44.48;95914.56;10460171;28;2083;-85
2021/05/27 15:33:58;;;;;;;;;;;16.70;88.20;;;14.62;46.85;95913.22;10479141;28;1913;-86
2021/05/27 15:39:12;;;;;;;;;;;16.00;90.00;;;14.25;48.05;95927.53;10472577;28;2051;-86
2021/05/27 15:44:18;;;;;;;;;;;15.50;92.10;;;14.00;49.12;95931.44;10461599;28;1778;-84
2021/05/27 15:49:26;;;;;;;;;;;15.30;93.40;;;13.87;49.65;95935.66;10456029;28;1668;-84
2021/05/27 15:54:52;;;;;;;;;;;15.10;94.20;;;13.81;51.35;95938.72;10469750;28;1585;-84
2021/05/27 15:59:58;;;;;;;;;;;14.90;96.10;;;13.48;54.47;95962.84;10467331;28;1951;-88
2021/05/27 16:05:01;;;;;;;;;;;14.80;99.50;;;12.80;59.12;95954.88;10476199;28;1626;-86
2021/05/27 16:10:10;;;;;;;;;;;14.10;99.90;;;12.81;59.66;95953.78;10473696;28;1980;-87
2021/05/27 16:15:38;;;;;;;;;;;13.90;99.90;;;12.89;60.62;95956.66;10488121;28;2016;-83
2021/05/27 16:20:41;;;;;;;;;;;13.80;99.90;;;12.97;61.39;95969.53;10495550;28;1214;-85
2021/05/27 16:25:44;;;;;;;;;;;13.90;99.90;;;13.61;60.64;95970.25;10503376;28;2125;-85
2021/05/27 16:30:53;;;;;;;;;;;14.10;99.90;;;13.50;60.40;95969.59;10509812;28;1894;-85
2021/05/27 16:41:18;;;;;;;;;;;14.40;99.90;;;13.67;58.78;95968.31;10436890;28;1736;-85
2021/05/27 16:46:22;;;;;;;;;;;14.60;99.90;;;13.47;60.40;95974.75;10480341;28;1998;-86
2021/05/27 16:51:26;;;;;;;;;;;14.50;99.90;;;13.80;59.01;95967.59;10479048;28;1981;-86
2021/05/27 16:56:29;;;;;;;;;;;14.60;99.90;;;14.16;58.52;95969.84;10497089;28;1760;-85
2021/05/27 17:01:35;;;;;;;;;;;14.70;99.90;;;14.06;57.15;95966.22;10493020;28;2108;-86
2021/05/27 17:06:38;;;;;;;;;;;14.90;99.90;;;14.18;56.68;95971.16;10491012;28;1809;-84
2021/05/27 17:11:41;;;;;;;;;;;15.00;99.90;;;13.78;58.54;95967.09;10488248;28;2011;-87
2021/05/27 17:16:45;;;;;;;;;;;14.90;99.90;;;13.51;59.86;95975.78;10472541;28;2119;-86
2021/05/27 17:21:47;;;;;;;;;;;14.70;99.90;;;13.37;60.64;95981.06;10494612;28;2362;-86
2021/05/27 17:26:50;;;;;;;;;;;14.40;99.90;;;13.14;61.16;95979.09;10490842;28;1811;-83
2021/05/27 17:31:52;;;;;;;;;;;14.30;99.90;;;12.97;62.19;95983.00;10494379;28;1906;-85
2021/05/27 17:36:55;;;;;;;;;;;14.10;99.90;;;12.92;61.86;95984.97;10470079;28;1753;-84
2021/05/27 17:42:03;;;;;;;;;;;14.00;99.90;;;12.90;62.11;95982.53;10492834;28;1292;-85
2021/05/27 17:47:06;;;;;;;;;;;13.90;99.90;;;13.06;61.14;95982.44;10479588;28;2248;-86
2021/05/27 17:52:09;;;;;;;;;;;14.00;99.90;;;13.24;60.81;95984.44;10473282;28;2061;-86
2021/05/27 17:57:12;;;;;;;;;;;14.10;99.90;;;13.24;59.50;95989.84;10455651;28;2205;-84
2021/05/27 18:02:15;;;;;;;;;;;14.20;99.90;;;12.98;59.96;95994.66;10456663;28;1721;-86
2021/05/27 18:07:20;;;;;;;;;;;14.10;99.90;;;12.74;60.35;95999.97;10453422;28;2109;-82
2021/05/27 18:12:24;;;;;;;;;;;13.90;99.90;;;12.47;62.15;96004.97;10457689;28;2096;-86
2021/05/27 18:17:27;;;;;;;;;;;13.80;99.90;;;12.23;64.32;96021.06;10486363;28;1304;-86
2021/05/27 18:22:30;;;;;;;;;;;13.40;99.90;;;11.57;69.89;96035.53;10465706;28;1472;-86
2021/05/27 18:27:33;;;;;;;;;;;13.00;99.90;;;10.92;73.30;96039.91;10486075;28;1531;-83
2021/05/27 18:32:36;;;;;;;;;;;12.40;99.90;;;10.55;74.97;96057.09;10485278;28;1975;-86
2021/05/27 18:37:41;;;;;;;;;;;11.90;99.90;;;9.57;85.17;96067.69;10456444;28;1559;-85
2021/05/27 18:42:43;;;;;;;;;;;11.20;99.90;;;9.20;93.43;96076.56;10458723;28;1291;-87
2021/05/27 18:47:46;;;;;;;;;;;10.50;99.90;;;9.20;95.26;96066.66;10448538;28;1663;-87
2021/05/27 18:52:49;;;;;;;;;;;10.20;99.90;;;9.19;95.28;96073.09;10444774;28;1917;-85
2021/05/27 18:57:52;;;;;;;;;;;10.20;99.90;;;9.11;93.46;96070.88;10471559;28;1546;-87
2021/05/27 19:02:55;;;;;;;;;;;10.10;99.90;;;9.02;95.84;96075.09;10448586;28;1585;-85
2021/05/27 19:07:57;;;;;;;;;;;10.10;99.90;;;9.14;94.82;96070.38;10465412;28;1708;-84
2021/05/27 19:13:01;;;;;;;;;;;10.10;99.90;;;9.11;95.60;96081.63;10451944;28;1985;-86
2021/05/27 19:18:03;;;;;;;;;;;10.10;99.90;;;9.12;96.54;96087.78;10453116;28;1529;-86
2021/05/27 19:23:06;;;;;;;;;;;10.20;99.90;;;9.12;97.28;96096.63;10472827;28;1552;-83
2021/05/27 19:28:08;;;;;;;;;;;10.20;99.90;;;9.15;95.95;96109.53;10482902;28;1289;-86
2021/05/27 19:33:16;;;;;;;;;;;10.20;99.90;;;9.13;95.22;96110.84;10474532;28;1886;-85
2021/05/27 19:38:19;;;;;;;;;;;10.20;99.90;;;9.06;95.84;96110.25;10490025;28;1216;-84
2021/05/27 19:43:21;;;;;;;;;;;10.10;99.90;;;9.05;97.13;96109.47;10456796;28;1723;-87
2021/05/27 19:48:25;;;;;;;;;;;10.10;99.90;;;8.99;96.26;96121.19;10478268;28;1598;-89
2021/05/27 19:53:28;;;;;;;;;;;10.10;99.90;;;9.00;97.06;96125.50;10459993;28;1907;-87
2021/05/27 19:58:37;;;;;;;;;;;10.10;99.90;;;8.94;96.91;96129.19;10482794;28;1591;-87
2021/05/27 20:03:40;;;;;;;;;;;10.10;99.90;;;8.81;97.56;96143.81;10474816;28;1451;-86
2021/05/27 20:08:42;;;;;;;;;;;10.00;99.90;;;8.74;98.14;96147.78;10451985;28;1370;-87
2021/05/27 20:13:46;;;;;;;;;;;9.90;99.90;;;8.77;97.31;96147.25;10459222;28;1981;-86
2021/05/27 20:18:49;;;;;;;;;;;9.90;99.90;;;8.78;98.11;96143.50;10449166;28;1295;-85
2021/05/27 20:23:52;;;;;;;;;;;9.90;99.90;;;8.79;98.06;96145.16;10465891;28;1629;-86
2021/05/27 20:28:55;;;;;;;;;;;9.90;99.90;;;8.80;97.31;96144.06;10479786;28;1539;-86
2021/05/27 20:33:57;;;;;;;;;;;11.00;99.90;;;8.84;97.73;96162.09;10488525;28;1954;-86
2021/05/27 20:39:00;;;;;;;;;;;9.90;99.90;;;8.89;97.43;96150.59;10479869;28;1613;-85
2021/05/27 20:44:02;;;;;;;;;;;10.40;99.90;;;8.83;97.34;96154.28;10492512;28;1303;-84
2021/05/27 20:49:08;;;;;;;;;;;10.00;99.90;;;8.81;97.46;96151.84;10502448;28;1939;-86
2021/05/27 20:54:10;;;;;;;;;;;9.90;99.90;;;8.86;98.38;96164.50;10481617;28;1972;-84
2021/05/27 20:59:13;;;;;;;;;;;10.80;99.90;;;9.01;97.71;96171.88;10463146;28;2115;-86
2021/05/27 21:04:16;;;;;;;;;;;10.00;99.90;;;9.04;96.40;96166.84;10460998;28;1692;-87
2021/05/27 21:09:19;;;;;;;;;;;10.00;99.90;;;9.09;96.95;96168.75;10470477;28;1933;-88
2021/05/27 21:14:22;;;;;;;;;;;10.10;99.90;;;8.98;97.02;96167.03;10478121;28;1989;-85
2021/05/27 21:19:45;;;;;;;;;;;10.10;99.90;;;8.98;97.55;96173.22;10478947;28;2063;-88
2021/05/27 21:24:59;;;;;;;;;;;10.10;99.90;;;9.01;97.66;96178.06;10484035;28;2025;-89
2021/05/27 21:30:22;;;;;;;;;;;10.10;99.90;;;9.08;98.64;96167.13;10475329;28;2161;-87
2021/05/27 21:35:34;;;;;;;;;;;10.10;99.90;;;9.17;96.91;96170.97;10470963;28;1902;-87
2021/05/27 21:40:55;;;;;;;;;;;10.10;99.90;;;9.29;96.63;96162.75;10477757;28;2030;-89
2021/05/27 21:51:43;;;;;;;;;;;10.40;99.90;;;9.50;95.11;96164.53;10454744;28;1914;-88
2021/05/27 22:26:58;;;;;;;;;;;;;;;;;;;;;
2021/05/27 22:56:46;;;;;;;;;;;10.40;99.90;;;9.26;96.92;96161.38;10113126;29;2099;-86
2021/05/27 23:08:45;;;;;;;;;;;;;;;;;;;;;
2021/05/27 23:14:59;;;;;;;;;;;10.30;99.90;;;9.33;96.60;96163.84;10196374;29;2097;-87
